sensor_id;sensor_type;location;lat;lon;timestamp;P1;durP1;ratioP1;P2;durP2;ratioP2
20306;SDS011;10312;52.434;13.206;2023-03-04T00:00:39;35.08;;;17.45;;
20306;SDS011;10312;52.434;13.206;2023-03-04T00:03:08;38.60;;;18.17;;
20306;SDS011;10312;52.434;13.206;2023-03-04T00:05:41;35.47;;;16.42;;
20306;SDS011;10312;52.434;13.206;2023-03-04T00:08:08;36.10;;;16.45;;
20306;SDS011;10312;52.434;13.206;2023-03-04T00:10:35;35.08;;;17.33;;
20306;SDS011;10312;52.434;13.206;2023-03-04T00:13:04;35.95;;;16.55;;
20306;SDS011;10312;52.434;13.206;2023-03-04T00:15:32;35.30;;;16.70;;
20306;SDS011;10312;52.434;13.206;2023-03-04T00:18:00;37.17;;;16.90;;
20306;SDS011;10312;52.434;13.206;2023-03-04T00:20:28;34.80;;;16.55;;
20306;SDS011;10312;52.434;13.206;2023-03-04T00:22:57;35.40;;;16.67;;
20306;SDS011;10312;52.434;13.206;2023-03-04T00:25:26;41.10;;;18.00;;
20306;SDS011;10312;52.434;13.206;2023-03-04T00:27:55;37.13;;;16.77;;
20306;SDS011;10312;52.434;13.206;2023-03-04T00:30:25;36.72;;;17.75;;
20306;SDS011;10312;52.434;13.206;2023-03-04T00:32:55;35.70;;;17.45;;
20306;SDS011;10312;52.434;13.206;2023-03-04T00:35:23;42.00;;;16.55;;
20306;SDS011;10312;52.434;13.206;2023-03-04T00:37:53;40.55;;;17.17;;
20306;SDS011;10312;52.434;13.206;2023-03-04T00:40:22;38.88;;;16.85;;
20306;SDS011;10312;52.434;13.206;2023-03-04T00:42:52;35.65;;;17.08;;
20306;SDS011;10312;52.434;13.206;2023-03-04T00:45:21;36.42;;;16.40;;
20306;SDS011;10312;52.434;13.206;2023-03-04T00:47:51;33.65;;;15.80;;
20306;SDS011;10312;52.434;13.206;2023-03-04T00:50:20;39.80;;;17.45;;
20306;SDS011;10312;52.434;13.206;2023-03-04T00:52:50;42.47;;;18.02;;
20306;SDS011;10312;52.434;13.206;2023-03-04T00:55:19;36.35;;;15.63;;
20306;SDS011;10312;52.434;13.206;2023-03-04T00:57:47;35.53;;;14.40;;
20306;SDS011;10312;52.434;13.206;2023-03-04T01:00:18;34.05;;;15.00;;
20306;SDS011;10312;52.434;13.206;2023-03-04T01:02:46;37.20;;;15.00;;
20306;SDS011;10312;52.434;13.206;2023-03-04T01:05:13;37.42;;;15.23;;
20306;SDS011;10312;52.434;13.206;2023-03-04T01:07:43;29.88;;;12.98;;
20306;SDS011;10312;52.434;13.206;2023-03-04T01:10:13;35.08;;;15.15;;
20306;SDS011;10312;52.434;13.206;2023-03-04T01:12:43;29.27;;;13.43;;
20306;SDS011;10312;52.434;13.206;2023-03-04T01:15:12;34.10;;;14.45;;
20306;SDS011;10312;52.434;13.206;2023-03-04T01:17:41;36.20;;;13.98;;
20306;SDS011;10312;52.434;13.206;2023-03-04T01:20:10;34.20;;;14.05;;
20306;SDS011;10312;52.434;13.206;2023-03-04T01:22:40;32.65;;;12.98;;
20306;SDS011;10312;52.434;13.206;2023-03-04T01:25:09;35.05;;;13.15;;
20306;SDS011;10312;52.434;13.206;2023-03-04T01:27:39;27.25;;;11.70;;
20306;SDS011;10312;52.434;13.206;2023-03-04T01:30:10;31.52;;;11.88;;
20306;SDS011;10312;52.434;13.206;2023-03-04T01:32:39;33.90;;;12.38;;
20306;SDS011;10312;52.434;13.206;2023-03-04T01:35:09;29.17;;;12.23;;
20306;SDS011;10312;52.434;13.206;2023-03-04T01:37:40;34.47;;;11.40;;
20306;SDS011;10312;52.434;13.206;2023-03-04T01:40:07;27.15;;;11.10;;
20306;SDS011;10312;52.434;13.206;2023-03-04T01:42:36;32.15;;;10.43;;
20306;SDS011;10312;52.434;13.206;2023-03-04T01:45:09;28.38;;;11.13;;
20306;SDS011;10312;52.434;13.206;2023-03-04T01:47:43;31.23;;;10.75;;
20306;SDS011;10312;52.434;13.206;2023-03-04T01:50:19;35.72;;;10.85;;
20306;SDS011;10312;52.434;13.206;2023-03-04T01:52:52;29.48;;;9.93;;
20306;SDS011;10312;52.434;13.206;2023-03-04T01:55:21;33.92;;;10.60;;
20306;SDS011;10312;52.434;13.206;2023-03-04T01:57:51;34.08;;;10.48;;
20306;SDS011;10312;52.434;13.206;2023-03-04T02:00:22;24.90;;;9.77;;
20306;SDS011;10312;52.434;13.206;2023-03-04T02:02:52;30.52;;;10.05;;
20306;SDS011;10312;52.434;13.206;2023-03-04T02:05:21;34.72;;;10.10;;
20306;SDS011;10312;52.434;13.206;2023-03-04T02:07:51;26.95;;;9.23;;
20306;SDS011;10312;52.434;13.206;2023-03-04T02:10:20;27.17;;;10.02;;
20306;SDS011;10312;52.434;13.206;2023-03-04T02:12:51;27.73;;;9.48;;
20306;SDS011;10312;52.434;13.206;2023-03-04T02:15:21;28.85;;;9.10;;
20306;SDS011;10312;52.434;13.206;2023-03-04T02:17:51;30.42;;;10.30;;
20306;SDS011;10312;52.434;13.206;2023-03-04T02:22:57;21.85;;;8.93;;
20306;SDS011;10312;52.434;13.206;2023-03-04T02:25:38;24.15;;;8.35;;
20306;SDS011;10312;52.434;13.206;2023-03-04T02:28:11;22.70;;;8.30;;
20306;SDS011;10312;52.434;13.206;2023-03-04T02:30:41;30.42;;;8.30;;
20306;SDS011;10312;52.434;13.206;2023-03-04T02:33:12;31.83;;;8.82;;
20306;SDS011;10312;52.434;13.206;2023-03-04T02:35:46;22.55;;;8.63;;
20306;SDS011;10312;52.434;13.206;2023-03-04T02:38:14;27.42;;;8.88;;
20306;SDS011;10312;52.434;13.206;2023-03-04T02:40:47;26.95;;;7.18;;
20306;SDS011;10312;52.434;13.206;2023-03-04T02:43:18;24.85;;;7.75;;
20306;SDS011;10312;52.434;13.206;2023-03-04T02:45:49;28.45;;;7.43;;
20306;SDS011;10312;52.434;13.206;2023-03-04T02:48:20;22.17;;;7.40;;
20306;SDS011;10312;52.434;13.206;2023-03-04T02:50:52;23.17;;;7.88;;
20306;SDS011;10312;52.434;13.206;2023-03-04T02:53:20;23.63;;;7.65;;
20306;SDS011;10312;52.434;13.206;2023-03-04T02:55:48;19.65;;;7.30;;
20306;SDS011;10312;52.434;13.206;2023-03-04T02:58:17;20.80;;;7.63;;
20306;SDS011;10312;52.434;13.206;2023-03-04T03:00:49;19.48;;;6.72;;
20306;SDS011;10312;52.434;13.206;2023-03-04T03:03:17;24.38;;;6.57;;
20306;SDS011;10312;52.434;13.206;2023-03-04T03:05:45;21.40;;;6.55;;
20306;SDS011;10312;52.434;13.206;2023-03-04T03:08:13;19.65;;;7.25;;
20306;SDS011;10312;52.434;13.206;2023-03-04T03:10:43;17.92;;;6.53;;
20306;SDS011;10312;52.434;13.206;2023-03-04T03:13:13;21.70;;;6.60;;
20306;SDS011;10312;52.434;13.206;2023-03-04T03:15:43;22.17;;;6.57;;
20306;SDS011;10312;52.434;13.206;2023-03-04T03:18:15;22.05;;;7.43;;
20306;SDS011;10312;52.434;13.206;2023-03-04T03:20:44;24.13;;;6.70;;
20306;SDS011;10312;52.434;13.206;2023-03-04T03:23:14;19.02;;;6.13;;
20306;SDS011;10312;52.434;13.206;2023-03-04T03:25:44;22.52;;;6.03;;
20306;SDS011;10312;52.434;13.206;2023-03-04T03:28:14;20.77;;;6.25;;
20306;SDS011;10312;52.434;13.206;2023-03-04T03:30:43;25.08;;;6.30;;
20306;SDS011;10312;52.434;13.206;2023-03-04T03:33:13;21.10;;;6.22;;
20306;SDS011;10312;52.434;13.206;2023-03-04T03:35:44;21.38;;;6.05;;
20306;SDS011;10312;52.434;13.206;2023-03-04T03:38:12;30.35;;;7.18;;
20306;SDS011;10312;52.434;13.206;2023-03-04T03:40:44;21.42;;;6.82;;
20306;SDS011;10312;52.434;13.206;2023-03-04T03:43:12;21.95;;;5.95;;
20306;SDS011;10312;52.434;13.206;2023-03-04T03:45:41;20.05;;;5.72;;
20306;SDS011;10312;52.434;13.206;2023-03-04T03:48:11;26.90;;;5.70;;
20306;SDS011;10312;52.434;13.206;2023-03-04T03:50:41;22.02;;;5.65;;
20306;SDS011;10312;52.434;13.206;2023-03-04T03:53:11;23.35;;;6.38;;
20306;SDS011;10312;52.434;13.206;2023-03-04T03:55:41;17.05;;;5.60;;
20306;SDS011;10312;52.434;13.206;2023-03-04T03:58:10;24.35;;;6.25;;
20306;SDS011;10312;52.434;13.206;2023-03-04T04:00:37;16.48;;;5.30;;
20306;SDS011;10312;52.434;13.206;2023-03-04T04:03:04;14.32;;;5.75;;
20306;SDS011;10312;52.434;13.206;2023-03-04T04:05:32;25.52;;;5.85;;
20306;SDS011;10312;52.434;13.206;2023-03-04T04:08:00;19.27;;;5.28;;
20306;SDS011;10312;52.434;13.206;2023-03-04T04:10:30;20.23;;;5.85;;
20306;SDS011;10312;52.434;13.206;2023-03-04T04:12:59;24.83;;;5.10;;
20306;SDS011;10312;52.434;13.206;2023-03-04T04:15:28;18.58;;;4.90;;
20306;SDS011;10312;52.434;13.206;2023-03-04T04:17:56;18.42;;;4.97;;
20306;SDS011;10312;52.434;13.206;2023-03-04T04:20:24;22.80;;;4.70;;
20306;SDS011;10312;52.434;13.206;2023-03-04T04:22:51;19.45;;;4.75;;
20306;SDS011;10312;52.434;13.206;2023-03-04T04:25:22;16.40;;;4.55;;
20306;SDS011;10312;52.434;13.206;2023-03-04T04:27:52;21.38;;;4.38;;
20306;SDS011;10312;52.434;13.206;2023-03-04T04:30:21;13.40;;;3.70;;
20306;SDS011;10312;52.434;13.206;2023-03-04T04:32:50;23.45;;;4.65;;
20306;SDS011;10312;52.434;13.206;2023-03-04T04:35:20;18.20;;;4.90;;
20306;SDS011;10312;52.434;13.206;2023-03-04T04:37:50;15.80;;;3.53;;
20306;SDS011;10312;52.434;13.206;2023-03-04T04:40:18;14.40;;;4.22;;
20306;SDS011;10312;52.434;13.206;2023-03-04T04:42:47;23.48;;;4.30;;
20306;SDS011;10312;52.434;13.206;2023-03-04T04:45:16;19.70;;;3.85;;
20306;SDS011;10312;52.434;13.206;2023-03-04T04:47:45;15.57;;;3.85;;
20306;SDS011;10312;52.434;13.206;2023-03-04T04:50:14;19.25;;;4.22;;
20306;SDS011;10312;52.434;13.206;2023-03-04T04:52:43;17.73;;;3.72;;
20306;SDS011;10312;52.434;13.206;2023-03-04T04:55:14;17.40;;;3.58;;
20306;SDS011;10312;52.434;13.206;2023-03-04T04:57:43;19.23;;;3.50;;
20306;SDS011;10312;52.434;13.206;2023-03-04T05:00:13;21.15;;;3.63;;
20306;SDS011;10312;52.434;13.206;2023-03-04T05:02:42;18.58;;;3.72;;
20306;SDS011;10312;52.434;13.206;2023-03-04T05:05:11;15.15;;;3.63;;
20306;SDS011;10312;52.434;13.206;2023-03-04T05:07:41;14.77;;;3.35;;
20306;SDS011;10312;52.434;13.206;2023-03-04T05:10:11;16.63;;;3.58;;
20306;SDS011;10312;52.434;13.206;2023-03-04T05:12:39;14.60;;;3.10;;
20306;SDS011;10312;52.434;13.206;2023-03-04T05:15:06;17.40;;;3.67;;
20306;SDS011;10312;52.434;13.206;2023-03-04T05:17:37;10.88;;;3.20;;
20306;SDS011;10312;52.434;13.206;2023-03-04T05:20:06;21.77;;;4.25;;
20306;SDS011;10312;52.434;13.206;2023-03-04T05:22:34;11.70;;;3.28;;
20306;SDS011;10312;52.434;13.206;2023-03-04T05:25:02;14.68;;;3.38;;
20306;SDS011;10312;52.434;13.206;2023-03-04T05:27:30;9.13;;;2.97;;
20306;SDS011;10312;52.434;13.206;2023-03-04T05:29:58;12.57;;;3.58;;
20306;SDS011;10312;52.434;13.206;2023-03-04T05:32:26;14.05;;;2.22;;
20306;SDS011;10312;52.434;13.206;2023-03-04T05:34:54;14.35;;;2.88;;
20306;SDS011;10312;52.434;13.206;2023-03-04T05:37:24;13.40;;;3.00;;
20306;SDS011;10312;52.434;13.206;2023-03-04T05:39:53;12.55;;;3.45;;
20306;SDS011;10312;52.434;13.206;2023-03-04T05:42:22;12.27;;;3.33;;
20306;SDS011;10312;52.434;13.206;2023-03-04T05:44:52;14.35;;;3.15;;
20306;SDS011;10312;52.434;13.206;2023-03-04T05:47:21;13.73;;;2.80;;
20306;SDS011;10312;52.434;13.206;2023-03-04T05:49:50;14.30;;;2.92;;
20306;SDS011;10312;52.434;13.206;2023-03-04T05:52:23;12.40;;;3.03;;
20306;SDS011;10312;52.434;13.206;2023-03-04T05:54:53;12.43;;;3.08;;
20306;SDS011;10312;52.434;13.206;2023-03-04T05:57:23;11.95;;;2.75;;
20306;SDS011;10312;52.434;13.206;2023-03-04T05:59:50;10.50;;;3.05;;
20306;SDS011;10312;52.434;13.206;2023-03-04T06:02:18;11.25;;;3.97;;
20306;SDS011;10312;52.434;13.206;2023-03-04T06:04:45;9.50;;;3.10;;
20306;SDS011;10312;52.434;13.206;2023-03-04T06:07:13;12.77;;;2.88;;
20306;SDS011;10312;52.434;13.206;2023-03-04T06:09:45;14.65;;;3.15;;
20306;SDS011;10312;52.434;13.206;2023-03-04T06:12:13;12.38;;;3.17;;
20306;SDS011;10312;52.434;13.206;2023-03-04T06:14:44;13.23;;;3.50;;
20306;SDS011;10312;52.434;13.206;2023-03-04T06:17:14;13.13;;;3.22;;
20306;SDS011;10312;52.434;13.206;2023-03-04T06:19:43;10.48;;;3.13;;
20306;SDS011;10312;52.434;13.206;2023-03-04T06:22:13;13.18;;;4.82;;
20306;SDS011;10312;52.434;13.206;2023-03-04T06:24:43;12.25;;;3.05;;
20306;SDS011;10312;52.434;13.206;2023-03-04T06:27:12;8.95;;;3.13;;
20306;SDS011;10312;52.434;13.206;2023-03-04T06:29:42;11.57;;;3.47;;
20306;SDS011;10312;52.434;13.206;2023-03-04T06:32:11;8.63;;;3.05;;
20306;SDS011;10312;52.434;13.206;2023-03-04T06:34:40;13.98;;;3.75;;
20306;SDS011;10312;52.434;13.206;2023-03-04T06:37:09;19.15;;;3.75;;
20306;SDS011;10312;52.434;13.206;2023-03-04T06:39:39;16.23;;;4.07;;
20306;SDS011;10312;52.434;13.206;2023-03-04T06:42:08;19.00;;;4.35;;
20306;SDS011;10312;52.434;13.206;2023-03-04T06:44:37;16.23;;;3.30;;
20306;SDS011;10312;52.434;13.206;2023-03-04T06:47:07;18.63;;;3.40;;
20306;SDS011;10312;52.434;13.206;2023-03-04T06:49:37;13.80;;;3.75;;
20306;SDS011;10312;52.434;13.206;2023-03-04T06:52:07;11.68;;;4.22;;
20306;SDS011;10312;52.434;13.206;2023-03-04T06:54:38;9.05;;;3.13;;
20306;SDS011;10312;52.434;13.206;2023-03-04T06:57:07;13.35;;;3.65;;
20306;SDS011;10312;52.434;13.206;2023-03-04T06:59:36;12.90;;;3.42;;
20306;SDS011;10312;52.434;13.206;2023-03-04T07:02:09;11.85;;;3.75;;
20306;SDS011;10312;52.434;13.206;2023-03-04T07:04:39;10.15;;;3.63;;
20306;SDS011;10312;52.434;13.206;2023-03-04T07:07:09;10.45;;;3.63;;
20306;SDS011;10312;52.434;13.206;2023-03-04T07:09:39;12.63;;;3.83;;
20306;SDS011;10312;52.434;13.206;2023-03-04T07:12:09;12.13;;;3.25;;
20306;SDS011;10312;52.434;13.206;2023-03-04T07:14:38;12.45;;;3.88;;
20306;SDS011;10312;52.434;13.206;2023-03-04T07:17:06;10.43;;;3.30;;
20306;SDS011;10312;52.434;13.206;2023-03-04T07:19:38;10.20;;;3.50;;
20306;SDS011;10312;52.434;13.206;2023-03-04T07:22:06;12.63;;;3.55;;
20306;SDS011;10312;52.434;13.206;2023-03-04T07:24:35;9.75;;;3.40;;
20306;SDS011;10312;52.434;13.206;2023-03-04T07:27:02;9.80;;;3.30;;
20306;SDS011;10312;52.434;13.206;2023-03-04T07:29:30;10.85;;;3.42;;
20306;SDS011;10312;52.434;13.206;2023-03-04T07:31:58;13.88;;;4.13;;
20306;SDS011;10312;52.434;13.206;2023-03-04T07:34:25;7.72;;;2.83;;
20306;SDS011;10312;52.434;13.206;2023-03-04T07:36:54;10.98;;;3.33;;
20306;SDS011;10312;52.434;13.206;2023-03-04T07:39:25;9.55;;;3.33;;
20306;SDS011;10312;52.434;13.206;2023-03-04T07:41:58;13.27;;;3.50;;
20306;SDS011;10312;52.434;13.206;2023-03-04T07:44:26;11.75;;;3.42;;
20306;SDS011;10312;52.434;13.206;2023-03-04T07:46:53;10.80;;;3.33;;
20306;SDS011;10312;52.434;13.206;2023-03-04T07:49:20;9.20;;;3.40;;
20306;SDS011;10312;52.434;13.206;2023-03-04T07:51:48;8.13;;;2.97;;
20306;SDS011;10312;52.434;13.206;2023-03-04T07:54:16;12.98;;;3.17;;
20306;SDS011;10312;52.434;13.206;2023-03-04T07:56:47;8.23;;;3.63;;
20306;SDS011;10312;52.434;13.206;2023-03-04T07:59:15;8.98;;;3.83;;
20306;SDS011;10312;52.434;13.206;2023-03-04T08:01:44;11.93;;;3.22;;
20306;SDS011;10312;52.434;13.206;2023-03-04T08:04:12;10.85;;;3.50;;
20306;SDS011;10312;52.434;13.206;2023-03-04T08:06:42;13.32;;;3.42;;
20306;SDS011;10312;52.434;13.206;2023-03-04T08:09:10;13.50;;;3.40;;
20306;SDS011;10312;52.434;13.206;2023-03-04T08:11:42;12.55;;;2.97;;
20306;SDS011;10312;52.434;13.206;2023-03-04T08:14:13;11.45;;;3.35;;
20306;SDS011;10312;52.434;13.206;2023-03-04T08:16:46;9.55;;;2.58;;
20306;SDS011;10312;52.434;13.206;2023-03-04T08:19:13;11.77;;;3.67;;
20306;SDS011;10312;52.434;13.206;2023-03-04T08:21:40;11.52;;;2.70;;
20306;SDS011;10312;52.434;13.206;2023-03-04T08:24:17;9.77;;;2.90;;
20306;SDS011;10312;52.434;13.206;2023-03-04T08:26:47;9.68;;;3.08;;
20306;SDS011;10312;52.434;13.206;2023-03-04T08:29:19;21.60;;;4.90;;
20306;SDS011;10312;52.434;13.206;2023-03-04T08:31:49;10.40;;;3.20;;
20306;SDS011;10312;52.434;13.206;2023-03-04T08:34:21;9.63;;;2.90;;
20306;SDS011;10312;52.434;13.206;2023-03-04T08:36:51;9.20;;;2.80;;
20306;SDS011;10312;52.434;13.206;2023-03-04T08:39:20;9.07;;;3.30;;
20306;SDS011;10312;52.434;13.206;2023-03-04T08:41:48;6.60;;;2.53;;
20306;SDS011;10312;52.434;13.206;2023-03-04T08:44:19;13.52;;;3.45;;
20306;SDS011;10312;52.434;13.206;2023-03-04T08:46:55;11.13;;;3.17;;
20306;SDS011;10312;52.434;13.206;2023-03-04T08:49:27;10.20;;;3.75;;
20306;SDS011;10312;52.434;13.206;2023-03-04T08:51:57;8.85;;;3.00;;
20306;SDS011;10312;52.434;13.206;2023-03-04T08:54:25;8.40;;;2.50;;
20306;SDS011;10312;52.434;13.206;2023-03-04T08:56:52;8.30;;;3.33;;
20306;SDS011;10312;52.434;13.206;2023-03-04T08:59:19;8.70;;;2.72;;
20306;SDS011;10312;52.434;13.206;2023-03-04T09:01:48;13.27;;;2.97;;
20306;SDS011;10312;52.434;13.206;2023-03-04T09:04:17;17.52;;;5.10;;
20306;SDS011;10312;52.434;13.206;2023-03-04T09:06:46;10.90;;;3.92;;
20306;SDS011;10312;52.434;13.206;2023-03-04T09:09:19;12.40;;;3.00;;
20306;SDS011;10312;52.434;13.206;2023-03-04T09:11:50;8.57;;;2.50;;
20306;SDS011;10312;52.434;13.206;2023-03-04T09:14:20;7.72;;;3.00;;
20306;SDS011;10312;52.434;13.206;2023-03-04T09:16:49;8.73;;;2.85;;
20306;SDS011;10312;52.434;13.206;2023-03-04T09:19:17;6.53;;;2.33;;
20306;SDS011;10312;52.434;13.206;2023-03-04T09:21:46;7.93;;;2.40;;
20306;SDS011;10312;52.434;13.206;2023-03-04T09:24:13;9.00;;;2.75;;
20306;SDS011;10312;52.434;13.206;2023-03-04T09:26:43;8.93;;;2.47;;
20306;SDS011;10312;52.434;13.206;2023-03-04T09:29:12;7.22;;;2.33;;
20306;SDS011;10312;52.434;13.206;2023-03-04T09:31:41;9.15;;;1.80;;
20306;SDS011;10312;52.434;13.206;2023-03-04T09:34:08;5.28;;;2.10;;
20306;SDS011;10312;52.434;13.206;2023-03-04T09:36:36;8.15;;;2.75;;
20306;SDS011;10312;52.434;13.206;2023-03-04T09:39:07;9.50;;;2.38;;
20306;SDS011;10312;52.434;13.206;2023-03-04T09:41:41;8.93;;;2.88;;
20306;SDS011;10312;52.434;13.206;2023-03-04T09:47:12;9.27;;;2.63;;
20306;SDS011;10312;52.434;13.206;2023-03-04T09:49:43;6.60;;;2.28;;
20306;SDS011;10312;52.434;13.206;2023-03-04T09:52:22;7.05;;;2.08;;
20306;SDS011;10312;52.434;13.206;2023-03-04T10:01:03;7.43;;;2.13;;
20306;SDS011;10312;52.434;13.206;2023-03-04T10:03:44;7.30;;;1.30;;
20306;SDS011;10312;52.434;13.206;2023-03-04T10:06:17;9.38;;;1.75;;
20306;SDS011;10312;52.434;13.206;2023-03-04T10:09:04;8.02;;;2.25;;
20306;SDS011;10312;52.434;13.206;2023-03-04T10:12:17;8.75;;;2.03;;
20306;SDS011;10312;52.434;13.206;2023-03-04T10:14:44;7.15;;;1.50;;
20306;SDS011;10312;52.434;13.206;2023-03-04T10:17:23;10.52;;;1.75;;
20306;SDS011;10312;52.434;13.206;2023-03-04T10:19:54;9.60;;;1.75;;
20306;SDS011;10312;52.434;13.206;2023-03-04T10:27:56;10.88;;;1.27;;
20306;SDS011;10312;52.434;13.206;2023-03-04T10:33:14;12.10;;;1.90;;
20306;SDS011;10312;52.434;13.206;2023-03-04T10:36:21;8.75;;;1.80;;
20306;SDS011;10312;52.434;13.206;2023-03-04T10:38:46;12.18;;;2.25;;
20306;SDS011;10312;52.434;13.206;2023-03-04T10:41:13;16.98;;;2.15;;
20306;SDS011;10312;52.434;13.206;2023-03-04T10:43:48;11.82;;;1.92;;
20306;SDS011;10312;52.434;13.206;2023-03-04T10:46:16;15.32;;;2.22;;
20306;SDS011;10312;52.434;13.206;2023-03-04T10:48:46;11.10;;;1.67;;
20306;SDS011;10312;52.434;13.206;2023-03-04T10:51:17;12.73;;;1.83;;
20306;SDS011;10312;52.434;13.206;2023-03-04T10:53:49;9.15;;;2.00;;
20306;SDS011;10312;52.434;13.206;2023-03-04T10:56:34;14.60;;;2.75;;
20306;SDS011;10312;52.434;13.206;2023-03-04T11:02:16;8.10;;;1.60;;
20306;SDS011;10312;52.434;13.206;2023-03-04T11:07:58;13.57;;;2.78;;
20306;SDS011;10312;52.434;13.206;2023-03-04T11:10:40;11.15;;;2.20;;
20306;SDS011;10312;52.434;13.206;2023-03-04T11:15:48;16.35;;;3.08;;
20306;SDS011;10312;52.434;13.206;2023-03-04T11:18:38;15.35;;;2.67;;
20306;SDS011;10312;52.434;13.206;2023-03-04T11:21:07;17.63;;;2.80;;
20306;SDS011;10312;52.434;13.206;2023-03-04T11:23:46;14.85;;;3.63;;
20306;SDS011;10312;52.434;13.206;2023-03-04T11:26:17;18.40;;;3.05;;
20306;SDS011;10312;52.434;13.206;2023-03-04T11:37:28;11.13;;;1.88;;
20306;SDS011;10312;52.434;13.206;2023-03-04T11:42:42;15.05;;;2.35;;
20306;SDS011;10312;52.434;13.206;2023-03-04T11:45:21;14.82;;;2.75;;
20306;SDS011;10312;52.434;13.206;2023-03-04T11:48:02;17.38;;;3.42;;
20306;SDS011;10312;52.434;13.206;2023-03-04T11:55:52;19.90;;;2.90;;
20306;SDS011;10312;52.434;13.206;2023-03-04T12:00:55;12.43;;;2.17;;
20306;SDS011;10312;52.434;13.206;2023-03-04T12:03:44;17.92;;;2.30;;
20306;SDS011;10312;52.434;13.206;2023-03-04T12:06:28;13.70;;;2.17;;
20306;SDS011;10312;52.434;13.206;2023-03-04T12:09:02;18.10;;;2.60;;
20306;SDS011;10312;52.434;13.206;2023-03-04T12:14:42;15.57;;;2.35;;
20306;SDS011;10312;52.434;13.206;2023-03-04T12:17:29;18.05;;;3.25;;
20306;SDS011;10312;52.434;13.206;2023-03-04T12:20:26;11.98;;;2.88;;
20306;SDS011;10312;52.434;13.206;2023-03-04T12:25:48;13.77;;;2.30;;
20306;SDS011;10312;52.434;13.206;2023-03-04T12:31:49;16.35;;;3.08;;
20306;SDS011;10312;52.434;13.206;2023-03-04T12:34:17;12.80;;;2.22;;
20306;SDS011;10312;52.434;13.206;2023-03-04T12:39:24;11.55;;;2.28;;
20306;SDS011;10312;52.434;13.206;2023-03-04T12:42:13;15.77;;;2.28;;
20306;SDS011;10312;52.434;13.206;2023-03-04T12:45:01;15.30;;;2.53;;
20306;SDS011;10312;52.434;13.206;2023-03-04T12:48:01;17.92;;;2.28;;
20306;SDS011;10312;52.434;13.206;2023-03-04T12:53:47;9.27;;;1.73;;
20306;SDS011;10312;52.434;13.206;2023-03-04T12:58:52;10.88;;;2.22;;
20306;SDS011;10312;52.434;13.206;2023-03-04T13:01:23;13.68;;;1.92;;
20306;SDS011;10312;52.434;13.206;2023-03-04T13:09:23;15.20;;;2.90;;
20306;SDS011;10312;52.434;13.206;2023-03-04T13:12:13;11.10;;;1.77;;
20306;SDS011;10312;52.434;13.206;2023-03-04T13:17:37;18.42;;;2.92;;
20306;SDS011;10312;52.434;13.206;2023-03-04T13:25:44;12.60;;;2.22;;
20306;SDS011;10312;52.434;13.206;2023-03-04T13:28:14;11.43;;;2.33;;
20306;SDS011;10312;52.434;13.206;2023-03-04T13:41:13;12.93;;;2.55;;
20306;SDS011;10312;52.434;13.206;2023-03-04T13:43:44;14.48;;;2.05;;
20306;SDS011;10312;52.434;13.206;2023-03-04T13:54:24;18.08;;;2.53;;
20306;SDS011;10312;52.434;13.206;2023-03-04T14:02:13;14.73;;;2.25;;
20306;SDS011;10312;52.434;13.206;2023-03-04T14:07:27;13.52;;;2.20;;
20306;SDS011;10312;52.434;13.206;2023-03-04T14:12:34;11.60;;;2.20;;
20306;SDS011;10312;52.434;13.206;2023-03-04T14:15:04;9.13;;;2.13;;
20306;SDS011;10312;52.434;13.206;2023-03-04T14:17:44;17.52;;;3.03;;
20306;SDS011;10312;52.434;13.206;2023-03-04T14:22:54;11.23;;;2.45;;
20306;SDS011;10312;52.434;13.206;2023-03-04T14:25:33;12.85;;;2.38;;
20306;SDS011;10312;52.434;13.206;2023-03-04T14:30:37;11.07;;;2.15;;
20306;SDS011;10312;52.434;13.206;2023-03-04T14:33:14;11.35;;;2.22;;
20306;SDS011;10312;52.434;13.206;2023-03-04T14:35:52;17.75;;;2.25;;
20306;SDS011;10312;52.434;13.206;2023-03-04T14:41:06;18.05;;;2.45;;
20306;SDS011;10312;52.434;13.206;2023-03-04T14:43:39;14.40;;;2.42;;
20306;SDS011;10312;52.434;13.206;2023-03-04T14:46:11;16.58;;;2.58;;
20306;SDS011;10312;52.434;13.206;2023-03-04T14:48:39;15.23;;;1.98;;
20306;SDS011;10312;52.434;13.206;2023-03-04T14:54:27;10.23;;;2.05;;
20306;SDS011;10312;52.434;13.206;2023-03-04T14:59:46;13.05;;;2.55;;
20306;SDS011;10312;52.434;13.206;2023-03-04T15:04:47;14.43;;;2.75;;
20306;SDS011;10312;52.434;13.206;2023-03-04T15:07:18;13.07;;;2.92;;
20306;SDS011;10312;52.434;13.206;2023-03-04T15:09:50;14.38;;;2.53;;
20306;SDS011;10312;52.434;13.206;2023-03-04T15:12:24;18.15;;;3.00;;
20306;SDS011;10312;52.434;13.206;2023-03-04T15:14:54;12.70;;;1.95;;
20306;SDS011;10312;52.434;13.206;2023-03-04T15:25:22;16.70;;;2.35;;
20306;SDS011;10312;52.434;13.206;2023-03-04T15:27:49;12.93;;;2.35;;
20306;SDS011;10312;52.434;13.206;2023-03-04T15:30:19;16.55;;;2.70;;
20306;SDS011;10312;52.434;13.206;2023-03-04T15:32:50;11.75;;;2.45;;
20306;SDS011;10312;52.434;13.206;2023-03-04T15:35:18;18.88;;;2.95;;
20306;SDS011;10312;52.434;13.206;2023-03-04T15:37:46;15.43;;;2.45;;
20306;SDS011;10312;52.434;13.206;2023-03-04T15:40:23;13.27;;;2.60;;
20306;SDS011;10312;52.434;13.206;2023-03-04T15:42:59;14.88;;;2.63;;
20306;SDS011;10312;52.434;13.206;2023-03-04T15:45:31;18.17;;;3.15;;
20306;SDS011;10312;52.434;13.206;2023-03-04T15:48:04;11.32;;;2.42;;
20306;SDS011;10312;52.434;13.206;2023-03-04T15:50:36;13.38;;;2.67;;
20306;SDS011;10312;52.434;13.206;2023-03-04T15:55:59;16.42;;;2.13;;
20306;SDS011;10312;52.434;13.206;2023-03-04T15:58:32;21.05;;;2.85;;
20306;SDS011;10312;52.434;13.206;2023-03-04T16:01:01;13.60;;;2.35;;
20306;SDS011;10312;52.434;13.206;2023-03-04T16:03:29;13.43;;;2.47;;
20306;SDS011;10312;52.434;13.206;2023-03-04T16:05:57;20.55;;;2.20;;
20306;SDS011;10312;52.434;13.206;2023-03-04T16:08:25;15.23;;;3.05;;
20306;SDS011;10312;52.434;13.206;2023-03-04T16:10:52;13.02;;;2.28;;
20306;SDS011;10312;52.434;13.206;2023-03-04T16:13:21;14.80;;;2.50;;
20306;SDS011;10312;52.434;13.206;2023-03-04T16:15:50;12.88;;;2.45;;
20306;SDS011;10312;52.434;13.206;2023-03-04T16:18:19;14.68;;;2.92;;
20306;SDS011;10312;52.434;13.206;2023-03-04T16:20:47;15.20;;;2.75;;
20306;SDS011;10312;52.434;13.206;2023-03-04T16:23:22;15.23;;;2.55;;
20306;SDS011;10312;52.434;13.206;2023-03-04T16:25:52;15.32;;;2.50;;
20306;SDS011;10312;52.434;13.206;2023-03-04T16:28:21;11.95;;;2.03;;
20306;SDS011;10312;52.434;13.206;2023-03-04T16:30:48;11.95;;;2.20;;
20306;SDS011;10312;52.434;13.206;2023-03-04T16:33:16;16.90;;;2.58;;
20306;SDS011;10312;52.434;13.206;2023-03-04T16:35:44;22.55;;;4.30;;
20306;SDS011;10312;52.434;13.206;2023-03-04T16:38:22;12.85;;;2.42;;
20306;SDS011;10312;52.434;13.206;2023-03-04T16:40:51;9.38;;;2.15;;
20306;SDS011;10312;52.434;13.206;2023-03-04T16:43:19;17.45;;;3.58;;
20306;SDS011;10312;52.434;13.206;2023-03-04T16:45:48;9.32;;;1.83;;
20306;SDS011;10312;52.434;13.206;2023-03-04T16:48:15;16.10;;;2.95;;
20306;SDS011;10312;52.434;13.206;2023-03-04T16:50:44;12.50;;;2.65;;
20306;SDS011;10312;52.434;13.206;2023-03-04T16:53:32;13.55;;;2.50;;
20306;SDS011;10312;52.434;13.206;2023-03-04T16:56:06;12.43;;;2.30;;
20306;SDS011;10312;52.434;13.206;2023-03-04T16:58:37;12.05;;;2.20;;